createdAt,value
2019-03-13T00:00:37.821Z,99639.96
2019-03-13T00:06:02.505Z,99608.75
2019-03-13T00:11:27.429Z,99601.50
2019-03-13T00:16:51.699Z,99593.81
2019-03-13T00:22:16.089Z,99566.66
2019-03-13T00:27:41.099Z,99543.00
2019-03-13T00:33:04.774Z,99542.17
2019-03-13T00:38:28.402Z,99532.41
2019-03-13T00:43:52.915Z,99515.26
2019-03-13T00:49:16.492Z,99498.12
2019-03-13T00:54:40.948Z,99500.53
2019-03-13T01:00:05.114Z,99502.45
2019-03-13T01:05:43.364Z,99498.77
2019-03-13T01:11:07.883Z,99487.38
2019-03-13T01:16:31.499Z,99486.08
2019-03-13T01:21:56.002Z,99495.44
2019-03-13T01:27:19.853Z,99470.64
2019-03-13T01:32:48.329Z,99484.36
2019-03-13T01:38:11.872Z,99496.36
2019-03-13T01:43:36.545Z,99508.35
2019-03-13T01:49:00.339Z,99520.44
2019-03-13T01:54:25.159Z,99521.84
2019-03-13T01:59:49.516Z,99509.08
2019-03-13T02:05:14.907Z,99536.51
2019-03-13T02:10:40.021Z,99546.81
2019-03-13T02:16:04.767Z,99544.19
2019-03-13T02:21:29.149Z,99530.47
2019-03-13T02:26:53.776Z,99546.88
2019-03-13T02:32:18.156Z,99549.91
2019-03-13T02:37:42.583Z,99544.37
2019-03-13T02:43:07.315Z,99542.75
2019-03-13T02:48:31.952Z,99530.28
2019-03-13T02:53:55.773Z,99531.32
2019-03-13T02:59:20.147Z,99501.47
2019-03-13T03:04:44.052Z,99493.85
2019-03-13T03:10:09.984Z,99495.41
2019-03-13T03:15:33.361Z,99497.28
2019-03-13T03:20:56.969Z,99504.63
2019-03-13T03:26:21.690Z,99514.38
2019-03-13T03:31:46.507Z,99525.30
2019-03-13T03:37:10.288Z,99556.89
2019-03-13T03:42:35.035Z,99559.97
2019-03-13T03:47:59.551Z,99573.20
2019-03-13T03:53:23.395Z,99590.77
2019-03-13T03:58:47.282Z,99616.22
2019-03-13T04:04:11.094Z,99625.08
2019-03-13T04:09:34.992Z,99654.12
2019-03-13T04:15:01.012Z,99660.14
2019-03-13T04:20:27.041Z,99672.03
2019-03-13T04:25:51.826Z,99689.28
2019-03-13T04:31:16.326Z,99687.52
2019-03-13T04:36:40.969Z,99719.53
2019-03-13T04:42:04.745Z,99729.27
2019-03-13T04:47:28.345Z,99740.23
2019-03-13T04:52:52.881Z,99758.03
2019-03-13T04:58:17.419Z,99773.28
2019-03-13T05:03:42.068Z,99756.46
2019-03-13T05:09:08.878Z,99781.48
2019-03-13T05:14:32.995Z,99797.58
2019-03-13T05:19:59.049Z,99801.13
2019-03-13T05:25:23.052Z,99797.48
2019-03-13T05:30:48.330Z,99816.05
2019-03-13T05:36:16.351Z,99821.24
2019-03-13T05:41:38.428Z,99834.23
2019-03-13T05:47:03.040Z,99834.98
2019-03-13T05:52:27.290Z,99853.75
2019-03-13T05:57:51.270Z,99863.13
2019-03-13T06:03:16.978Z,99873.72
2019-03-13T06:08:40.890Z,99869.91
2019-03-13T06:14:05.622Z,99864.99
2019-03-13T06:19:29.531Z,99872.94
2019-03-13T06:24:54.427Z,99883.72
2019-03-13T06:30:18.798Z,99888.30
2019-03-13T06:35:43.438Z,99903.02
2019-03-13T06:41:08.455Z,99893.50
2019-03-13T06:46:33.237Z,99914.97
2019-03-13T06:51:56.913Z,99916.22
2019-03-13T06:57:20.441Z,99925.63
2019-03-13T07:02:56.938Z,99936.22
2019-03-13T07:08:39.209Z,99937.46
2019-03-13T07:14:20.693Z,99930.02
2019-03-13T07:19:53.896Z,99942.39
2019-03-13T07:25:34.110Z,99933.86
2019-03-13T07:31:16.725Z,99936.27
2019-03-13T07:37:17.688Z,99940.46
2019-03-13T07:42:54.708Z,99942.19
2019-03-13T07:48:33.203Z,99923.77
2019-03-13T07:54:08.965Z,99940.05
2019-03-13T07:59:59.201Z,99930.48
2019-03-13T08:05:41.322Z,99928.05
2019-03-13T08:11:22.646Z,99920.28
2019-03-13T08:17:04.397Z,99922.02
2019-03-13T08:23:00.139Z,99921.30
2019-03-13T08:28:48.400Z,99920.61
2019-03-13T08:34:33.212Z,99907.55
2019-03-13T08:40:13.243Z,99917.84
2019-03-13T08:46:11.314Z,99919.59
2019-03-13T08:51:43.786Z,99917.94
2019-03-13T08:57:26.199Z,99912.59
2019-03-13T09:03:11.606Z,99915.52
2019-03-13T09:09:10.567Z,99918.72
2019-03-13T09:14:44.681Z,99899.15
2019-03-13T09:20:28.677Z,99905.06
2019-03-13T09:26:19.006Z,99885.80
2019-03-13T09:32:02.114Z,99885.25
2019-03-13T09:37:36.319Z,99887.23
2019-03-13T09:43:14.984Z,99859.38
2019-03-13T09:48:57.386Z,99862.90
2019-03-13T09:54:35.907Z,99858.64
2019-03-13T10:00:33.864Z,99870.87
2019-03-13T10:06:06.264Z,99885.21
2019-03-13T10:11:50.080Z,99875.39
2019-03-13T10:17:25.348Z,99845.31
2019-03-13T10:23:05.550Z,99844.11
2019-03-13T10:28:36.291Z,99840.44
2019-03-13T10:34:18.816Z,99836.50
2019-03-13T10:39:49.888Z,99812.85
2019-03-13T10:45:33.748Z,99818.00
2019-03-13T10:51:16.642Z,99809.80
2019-03-13T10:57:15.560Z,99805.17
2019-03-13T11:02:52.353Z,99808.48
2019-03-13T11:08:26.059Z,99778.61
2019-03-13T11:13:57.574Z,99794.30
2019-03-13T11:19:41.472Z,99728.66
2019-03-13T11:25:21.046Z,99770.78
2019-03-13T11:31:04.222Z,99784.28
2019-03-13T11:36:35.362Z,99788.59
2019-03-13T11:42:18.516Z,99783.73
2019-03-13T11:47:59.867Z,99773.78
2019-03-13T11:53:37.788Z,99782.30
2019-03-13T11:59:11.287Z,99778.85
2019-03-13T12:04:50.141Z,99776.61
2019-03-13T12:10:27.161Z,99788.93
2019-03-13T12:16:04.540Z,99782.39
2019-03-13T12:21:42.282Z,99775.58
2019-03-13T12:27:12.604Z,99778.88
2019-03-13T12:33:01.536Z,99777.55
2019-03-13T12:38:40.822Z,99772.13
2019-03-13T12:44:30.017Z,99774.87
2019-03-13T12:50:07.139Z,99761.67
2019-03-13T12:55:43.410Z,99763.84
2019-03-13T13:01:12.437Z,99754.39
2019-03-13T13:06:46.885Z,99756.27
2019-03-13T13:12:29.171Z,99736.56
2019-03-13T13:18:15.809Z,99736.64
2019-03-13T13:23:40.362Z,99723.20
2019-03-13T13:29:05.015Z,99724.05
2019-03-13T13:34:29.676Z,99727.56
2019-03-13T13:39:54.443Z,99712.42
2019-03-13T13:45:50.001Z,99714.48
2019-03-13T13:51:14.125Z,99716.14
2019-03-13T13:56:38.734Z,99706.16
2019-03-13T14:02:03.434Z,99707.67
2019-03-13T14:07:27.922Z,99705.39
2019-03-13T14:12:52.683Z,99699.28
2019-03-13T14:18:17.168Z,99695.64
2019-03-13T14:23:41.631Z,99686.20
2019-03-13T14:29:05.645Z,99672.22
2019-03-13T14:34:29.918Z,99672.73
2019-03-13T14:39:54.448Z,99658.20
2019-03-13T14:45:18.846Z,99665.80
2019-03-13T14:50:42.615Z,99657.63
2019-03-13T14:56:07.212Z,99660.23
2019-03-13T15:01:31.736Z,99662.47
2019-03-13T15:06:56.529Z,99671.53
2019-03-13T15:12:20.938Z,99660.48
2019-03-13T15:17:45.874Z,99659.42
2019-03-13T15:23:10.337Z,99648.86
2019-03-13T15:28:34.785Z,99653.77
2019-03-13T15:33:58.434Z,99645.70
2019-03-13T15:39:22.498Z,99647.23
2019-03-13T15:44:46.741Z,99640.81
2019-03-13T15:50:11.960Z,99639.73
2019-03-13T15:55:36.737Z,99655.34
2019-03-13T16:01:01.270Z,99637.00
2019-03-13T16:06:25.608Z,99637.52
2019-03-13T16:11:51.835Z,99628.22
2019-03-13T16:17:15.443Z,99619.98
2019-03-13T16:22:40.261Z,99605.37
2019-03-13T16:28:04.349Z,99618.81
2019-03-13T16:33:28.376Z,99622.73
2019-03-13T16:38:52.190Z,99615.04
2019-03-13T16:44:16.795Z,99602.56
2019-03-13T16:49:41.260Z,99592.53
2019-03-13T16:55:05.919Z,99585.91
2019-03-13T17:00:30.544Z,99590.26
2019-03-13T17:05:54.905Z,99585.45
2019-03-13T17:11:20.012Z,99580.83
2019-03-13T17:16:44.557Z,99566.96
2019-03-13T17:22:10.684Z,99570.93
2019-03-13T17:27:33.966Z,99571.77
2019-03-13T17:33:00.238Z,99558.30
2019-03-13T17:38:24.622Z,99549.09
2019-03-13T17:43:48.263Z,99559.53
2019-03-13T17:49:13.072Z,99554.70
2019-03-13T17:54:36.734Z,99530.73
2019-03-13T18:00:01.654Z,99547.89
2019-03-13T18:05:26.721Z,99544.37
2019-03-13T18:10:51.431Z,99535.07
2019-03-13T18:16:15.893Z,99540.22
2019-03-13T18:21:39.731Z,99527.66
2019-03-13T18:27:04.619Z,99529.63
2019-03-13T18:32:41.402Z,99523.78
2019-03-13T18:37:54.959Z,99514.15
2019-03-13T18:43:19.739Z,99520.66
2019-03-13T18:48:43.542Z,99529.87
2019-03-13T18:54:07.898Z,99535.00
2019-03-13T18:59:32.515Z,99532.25
2019-03-13T19:04:57.754Z,99564.44
2019-03-13T19:10:23.113Z,99578.53
2019-03-13T19:15:47.409Z,99571.25
2019-03-13T19:21:12.932Z,99548.38
2019-03-13T19:26:37.447Z,99539.67
2019-03-13T19:32:01.510Z,99526.65
2019-03-13T19:37:27.823Z,99500.84
2019-03-13T19:42:51.748Z,99513.30
2019-03-13T19:48:15.825Z,99513.17
2019-03-13T19:53:42.023Z,99505.23
2019-03-13T19:59:07.860Z,99501.08
2019-03-13T20:04:32.276Z,99500.83
2019-03-13T20:09:57.266Z,99488.14
2019-03-13T20:15:22.571Z,99487.66
2019-03-13T20:20:47.605Z,99476.88
2019-03-13T20:26:11.806Z,99468.00
2019-03-13T20:31:37.170Z,99472.73
2019-03-13T20:37:00.917Z,99472.73
2019-03-13T20:42:26.163Z,99485.77
2019-03-13T20:47:50.662Z,99481.52
2019-03-13T20:53:14.414Z,99471.20
2019-03-13T20:58:38.993Z,99467.70
2019-03-13T21:04:02.607Z,99460.94
2019-03-13T21:09:26.397Z,99464.50
2019-03-13T21:14:51.162Z,99468.51
2019-03-13T21:20:16.137Z,99441.52
2019-03-13T21:25:40.731Z,99455.72
2019-03-13T21:31:05.176Z,99453.59
2019-03-13T21:36:29.680Z,99445.67
2019-03-13T21:41:53.529Z,99446.03
2019-03-13T21:47:17.373Z,99449.89
2019-03-13T21:52:41.277Z,99457.02
2019-03-13T21:58:04.830Z,99444.23
2019-03-13T22:03:32.421Z,99471.78
2019-03-13T22:08:55.421Z,99452.27
2019-03-13T22:14:19.685Z,99436.66
2019-03-13T22:19:44.272Z,99447.30
2019-03-13T22:25:08.946Z,99448.38
2019-03-13T22:30:34.453Z,99456.58
2019-03-13T22:35:58.019Z,99445.77
2019-03-13T22:41:23.711Z,99460.98
2019-03-13T22:46:50.221Z,99458.86
2019-03-13T22:52:12.785Z,99449.00
2019-03-13T22:57:37.373Z,99451.13
2019-03-13T23:03:01.487Z,99447.64
2019-03-13T23:08:25.413Z,99450.14
2019-03-13T23:13:49.420Z,99436.09
2019-03-13T23:19:17.245Z,99463.55
2019-03-13T23:24:39.426Z,99457.08
2019-03-13T23:30:03.163Z,99463.58
2019-03-13T23:35:27.910Z,99453.84
2019-03-13T23:40:52.626Z,99454.55
2019-03-13T23:46:16.462Z,99448.67
2019-03-13T23:51:40.823Z,99435.57
2019-03-13T23:57:05.975Z,99437.61
